sensor_id;sensor_type;location;lat;lon;timestamp;temperature;humidity
9816;DHT22;4947;44.526;11.360;2023-02-26T00:00:34;12.10;99.90
9816;DHT22;4947;44.526;11.360;2023-02-26T00:03:03;12.20;99.90
9816;DHT22;4947;44.526;11.360;2023-02-26T00:05:31;12.10;99.90
9816;DHT22;4947;44.526;11.360;2023-02-26T00:08:01;12.10;99.90
9816;DHT22;4947;44.526;11.360;2023-02-26T00:10:31;12.20;99.90
9816;DHT22;4947;44.526;11.360;2023-02-26T00:12:59;12.30;99.90
9816;DHT22;4947;44.526;11.360;2023-02-26T00:15:27;12.40;99.90
9816;DHT22;4947;44.526;11.360;2023-02-26T00:18:00;12.30;99.90
9816;DHT22;4947;44.526;11.360;2023-02-26T00:20:30;12.40;99.90
9816;DHT22;4947;44.526;11.360;2023-02-26T00:23:03;12.50;99.90
9816;DHT22;4947;44.526;11.360;2023-02-26T00:25:31;12.50;99.90
9816;DHT22;4947;44.526;11.360;2023-02-26T00:27:59;12.50;99.90
9816;DHT22;4947;44.526;11.360;2023-02-26T00:30:28;12.50;99.90
9816;DHT22;4947;44.526;11.360;2023-02-26T00:32:56;12.50;99.90
9816;DHT22;4947;44.526;11.360;2023-02-26T00:35:25;12.40;99.90
9816;DHT22;4947;44.526;11.360;2023-02-26T00:38:03;12.40;99.90
9816;DHT22;4947;44.526;11.360;2023-02-26T00:40:39;12.40;99.90
9816;DHT22;4947;44.526;11.360;2023-02-26T00:43:13;12.40;99.90
9816;DHT22;4947;44.526;11.360;2023-02-26T00:45:52;12.40;99.90
9816;DHT22;4947;44.526;11.360;2023-02-26T00:48:33;12.40;99.90
9816;DHT22;4947;44.526;11.360;2023-02-26T00:51:09;12.40;99.90
9816;DHT22;4947;44.526;11.360;2023-02-26T00:53:45;12.30;99.90
9816;DHT22;4947;44.526;11.360;2023-02-26T00:56:16;12.40;99.90
9816;DHT22;4947;44.526;11.360;2023-02-26T00:58:44;12.30;99.90
9816;DHT22;4947;44.526;11.360;2023-02-26T01:01:11;12.30;99.90
9816;DHT22;4947;44.526;11.360;2023-02-26T01:03:39;12.30;99.90
9816;DHT22;4947;44.526;11.360;2023-02-26T01:06:16;12.30;99.90
9816;DHT22;4947;44.526;11.360;2023-02-26T01:08:51;12.20;99.90
9816;DHT22;4947;44.526;11.360;2023-02-26T01:11:21;12.00;99.90
9816;DHT22;4947;44.526;11.360;2023-02-26T01:13:50;12.00;99.90
9816;DHT22;4947;44.526;11.360;2023-02-26T01:16:21;11.90;99.90
9816;DHT22;4947;44.526;11.360;2023-02-26T01:18:57;11.80;99.90
9816;DHT22;4947;44.526;11.360;2023-02-26T01:21:30;11.70;99.90
9816;DHT22;4947;44.526;11.360;2023-02-26T01:24:02;11.60;99.90
9816;DHT22;4947;44.526;11.360;2023-02-26T01:26:31;11.50;99.90
9816;DHT22;4947;44.526;11.360;2023-02-26T01:29:03;11.40;99.90
9816;DHT22;4947;44.526;11.360;2023-02-26T01:31:37;11.40;99.90
9816;DHT22;4947;44.526;11.360;2023-02-26T01:34:09;11.30;99.90
9816;DHT22;4947;44.526;11.360;2023-02-26T01:36:45;11.30;99.90
9816;DHT22;4947;44.526;11.360;2023-02-26T01:39:24;11.30;99.90
9816;DHT22;4947;44.526;11.360;2023-02-26T01:41:58;11.30;99.90
9816;DHT22;4947;44.526;11.360;2023-02-26T01:44:30;11.20;99.90
9816;DHT22;4947;44.526;11.360;2023-02-26T01:47:05;11.20;99.90
9816;DHT22;4947;44.526;11.360;2023-02-26T01:49:37;11.20;99.90
9816;DHT22;4947;44.526;11.360;2023-02-26T01:52:06;11.10;99.90
9816;DHT22;4947;44.526;11.360;2023-02-26T01:54:55;11.10;99.90
9816;DHT22;4947;44.526;11.360;2023-02-26T01:57:23;11.10;99.90
9816;DHT22;4947;44.526;11.360;2023-02-26T01:59:52;11.00;99.90
9816;DHT22;4947;44.526;11.360;2023-02-26T02:02:21;11.00;99.90
9816;DHT22;4947;44.526;11.360;2023-02-26T02:04:50;11.00;99.90
9816;DHT22;4947;44.526;11.360;2023-02-26T02:07:18;11.00;99.90
9816;DHT22;4947;44.526;11.360;2023-02-26T02:09:45;11.00;99.90
9816;DHT22;4947;44.526;11.360;2023-02-26T02:12:24;10.90;99.90
9816;DHT22;4947;44.526;11.360;2023-02-26T02:15:02;11.00;99.90
9816;DHT22;4947;44.526;11.360;2023-02-26T02:17:40;11.00;99.90
9816;DHT22;4947;44.526;11.360;2023-02-26T02:23:11;10.90;99.90
9816;DHT22;4947;44.526;11.360;2023-02-26T02:31:42;10.80;99.90
9816;DHT22;4947;44.526;11.360;2023-02-26T02:34:15;10.80;99.90
9816;DHT22;4947;44.526;11.360;2023-02-26T02:36:50;10.80;99.90
9816;DHT22;4947;44.526;11.360;2023-02-26T02:39:22;10.90;99.90
9816;DHT22;4947;44.526;11.360;2023-02-26T02:41:55;10.90;99.90
9816;DHT22;4947;44.526;11.360;2023-02-26T02:44:27;10.90;99.90
9816;DHT22;4947;44.526;11.360;2023-02-26T02:47:03;10.90;99.90
9816;DHT22;4947;44.526;11.360;2023-02-26T02:49:36;10.90;99.90
9816;DHT22;4947;44.526;11.360;2023-02-26T02:52:09;10.80;99.90
9816;DHT22;4947;44.526;11.360;2023-02-26T02:54:42;10.80;99.90
9816;DHT22;4947;44.526;11.360;2023-02-26T02:57:15;10.80;99.90
9816;DHT22;4947;44.526;11.360;2023-02-26T02:59:46;10.80;99.90
9816;DHT22;4947;44.526;11.360;2023-02-26T03:02:20;10.80;99.90
9816;DHT22;4947;44.526;11.360;2023-02-26T03:04:50;10.80;99.90
9816;DHT22;4947;44.526;11.360;2023-02-26T03:07:18;10.80;99.90
9816;DHT22;4947;44.526;11.360;2023-02-26T03:09:46;10.80;99.90
9816;DHT22;4947;44.526;11.360;2023-02-26T03:12:14;10.80;99.90
9816;DHT22;4947;44.526;11.360;2023-02-26T03:14:42;10.80;99.90
9816;DHT22;4947;44.526;11.360;2023-02-26T03:17:22;10.80;99.90
9816;DHT22;4947;44.526;11.360;2023-02-26T03:19:59;10.80;99.90
9816;DHT22;4947;44.526;11.360;2023-02-26T03:22:36;10.80;99.90
9816;DHT22;4947;44.526;11.360;2023-02-26T03:25:09;10.80;99.90
9816;DHT22;4947;44.526;11.360;2023-02-26T03:27:44;10.80;99.90
9816;DHT22;4947;44.526;11.360;2023-02-26T03:30:19;10.80;99.90
9816;DHT22;4947;44.526;11.360;2023-02-26T03:32:55;10.40;99.90
9816;DHT22;4947;44.526;11.360;2023-02-26T03:35:28;9.70;99.90
9816;DHT22;4947;44.526;11.360;2023-02-26T03:38:01;9.30;99.90
9816;DHT22;4947;44.526;11.360;2023-02-26T03:40:33;9.10;99.90
9816;DHT22;4947;44.526;11.360;2023-02-26T03:43:04;8.90;99.90
9816;DHT22;4947;44.526;11.360;2023-02-26T03:45:34;8.70;99.90
9816;DHT22;4947;44.526;11.360;2023-02-26T03:48:07;8.60;99.90
9816;DHT22;4947;44.526;11.360;2023-02-26T03:50:39;8.50;99.90
9816;DHT22;4947;44.526;11.360;2023-02-26T03:53:13;8.40;99.90
9816;DHT22;4947;44.526;11.360;2023-02-26T03:55:45;8.40;99.90
9816;DHT22;4947;44.526;11.360;2023-02-26T03:58:14;8.30;99.90
9816;DHT22;4947;44.526;11.360;2023-02-26T04:00:44;8.30;99.90
9816;DHT22;4947;44.526;11.360;2023-02-26T04:03:20;8.20;99.90
9816;DHT22;4947;44.526;11.360;2023-02-26T04:05:51;8.30;99.90
9816;DHT22;4947;44.526;11.360;2023-02-26T04:08:19;8.20;99.90
9816;DHT22;4947;44.526;11.360;2023-02-26T04:10:52;8.20;99.90
9816;DHT22;4947;44.526;11.360;2023-02-26T04:13:20;8.20;99.90
9816;DHT22;4947;44.526;11.360;2023-02-26T04:15:48;8.20;99.90
9816;DHT22;4947;44.526;11.360;2023-02-26T04:18:18;8.10;99.90
9816;DHT22;4947;44.526;11.360;2023-02-26T04:20:45;8.00;99.90
9816;DHT22;4947;44.526;11.360;2023-02-26T04:23:13;7.80;99.90
9816;DHT22;4947;44.526;11.360;2023-02-26T04:25:40;7.70;99.90
9816;DHT22;4947;44.526;11.360;2023-02-26T04:28:08;7.60;99.90
9816;DHT22;4947;44.526;11.360;2023-02-26T04:30:36;7.50;99.90
9816;DHT22;4947;44.526;11.360;2023-02-26T04:33:04;7.40;99.90
9816;DHT22;4947;44.526;11.360;2023-02-26T04:35:34;7.40;99.90
9816;DHT22;4947;44.526;11.360;2023-02-26T04:38:01;7.40;99.90
9816;DHT22;4947;44.526;11.360;2023-02-26T04:40:29;7.30;99.90
9816;DHT22;4947;44.526;11.360;2023-02-26T04:42:56;7.20;99.90
9816;DHT22;4947;44.526;11.360;2023-02-26T04:45:25;7.10;99.90
9816;DHT22;4947;44.526;11.360;2023-02-26T04:47:52;7.00;99.90
9816;DHT22;4947;44.526;11.360;2023-02-26T04:50:20;7.00;99.90
9816;DHT22;4947;44.526;11.360;2023-02-26T04:52:49;7.00;99.90
9816;DHT22;4947;44.526;11.360;2023-02-26T04:55:17;6.90;99.90
9816;DHT22;4947;44.526;11.360;2023-02-26T04:57:45;6.90;99.90
9816;DHT22;4947;44.526;11.360;2023-02-26T05:00:14;6.90;99.90
9816;DHT22;4947;44.526;11.360;2023-02-26T05:02:41;6.90;99.90
9816;DHT22;4947;44.526;11.360;2023-02-26T05:05:09;6.70;99.90
9816;DHT22;4947;44.526;11.360;2023-02-26T05:07:36;6.60;99.90
9816;DHT22;4947;44.526;11.360;2023-02-26T05:10:09;6.50;99.90
9816;DHT22;4947;44.526;11.360;2023-02-26T05:12:37;6.40;99.90
9816;DHT22;4947;44.526;11.360;2023-02-26T05:15:06;6.30;99.90
9816;DHT22;4947;44.526;11.360;2023-02-26T05:17:34;6.30;99.90
9816;DHT22;4947;44.526;11.360;2023-02-26T05:20:02;6.30;99.90
9816;DHT22;4947;44.526;11.360;2023-02-26T05:22:30;6.30;99.90
9816;DHT22;4947;44.526;11.360;2023-02-26T05:24:58;6.20;99.90
9816;DHT22;4947;44.526;11.360;2023-02-26T05:27:27;6.00;99.90
9816;DHT22;4947;44.526;11.360;2023-02-26T05:29:55;6.00;99.90
9816;DHT22;4947;44.526;11.360;2023-02-26T05:32:22;6.00;99.90
9816;DHT22;4947;44.526;11.360;2023-02-26T05:34:50;6.00;99.90
9816;DHT22;4947;44.526;11.360;2023-02-26T05:37:18;6.00;99.90
9816;DHT22;4947;44.526;11.360;2023-02-26T05:39:45;5.90;99.90
9816;DHT22;4947;44.526;11.360;2023-02-26T05:42:13;5.90;99.90
9816;DHT22;4947;44.526;11.360;2023-02-26T05:44:42;5.90;99.90
9816;DHT22;4947;44.526;11.360;2023-02-26T05:47:10;5.90;99.90
9816;DHT22;4947;44.526;11.360;2023-02-26T05:49:38;5.90;99.90
9816;DHT22;4947;44.526;11.360;2023-02-26T05:52:05;5.80;99.90
9816;DHT22;4947;44.526;11.360;2023-02-26T05:54:33;5.80;99.90
9816;DHT22;4947;44.526;11.360;2023-02-26T05:57:01;5.90;99.90
9816;DHT22;4947;44.526;11.360;2023-02-26T05:59:29;5.90;99.90
9816;DHT22;4947;44.526;11.360;2023-02-26T06:02:00;5.80;99.90
9816;DHT22;4947;44.526;11.360;2023-02-26T06:04:28;5.80;99.90
9816;DHT22;4947;44.526;11.360;2023-02-26T06:06:56;5.70;99.90
9816;DHT22;4947;44.526;11.360;2023-02-26T06:09:23;5.70;99.90
9816;DHT22;4947;44.526;11.360;2023-02-26T06:11:51;5.70;99.90
9816;DHT22;4947;44.526;11.360;2023-02-26T06:14:19;5.70;99.90
9816;DHT22;4947;44.526;11.360;2023-02-26T06:16:47;5.60;99.90
9816;DHT22;4947;44.526;11.360;2023-02-26T06:19:17;5.50;99.90
9816;DHT22;4947;44.526;11.360;2023-02-26T06:21:46;5.50;99.90
9816;DHT22;4947;44.526;11.360;2023-02-26T06:24:14;5.40;99.90
9816;DHT22;4947;44.526;11.360;2023-02-26T06:26:42;5.40;99.90
9816;DHT22;4947;44.526;11.360;2023-02-26T06:29:11;5.30;99.90
9816;DHT22;4947;44.526;11.360;2023-02-26T06:31:39;5.30;99.90
9816;DHT22;4947;44.526;11.360;2023-02-26T06:34:06;5.30;99.90
9816;DHT22;4947;44.526;11.360;2023-02-26T06:36:36;5.20;99.90
9816;DHT22;4947;44.526;11.360;2023-02-26T06:39:04;5.20;99.90
9816;DHT22;4947;44.526;11.360;2023-02-26T06:41:37;5.20;99.90
9816;DHT22;4947;44.526;11.360;2023-02-26T06:44:04;5.20;99.90
9816;DHT22;4947;44.526;11.360;2023-02-26T06:46:32;5.20;99.90
9816;DHT22;4947;44.526;11.360;2023-02-26T06:49:00;5.20;99.90
9816;DHT22;4947;44.526;11.360;2023-02-26T06:51:28;5.20;99.90
9816;DHT22;4947;44.526;11.360;2023-02-26T06:53:57;5.20;99.90
9816;DHT22;4947;44.526;11.360;2023-02-26T06:56:25;5.20;99.90
9816;DHT22;4947;44.526;11.360;2023-02-26T06:58:53;5.10;99.90
9816;DHT22;4947;44.526;11.360;2023-02-26T07:01:21;5.20;99.90
9816;DHT22;4947;44.526;11.360;2023-02-26T07:03:48;5.20;99.90
9816;DHT22;4947;44.526;11.360;2023-02-26T07:06:16;5.20;99.90
9816;DHT22;4947;44.526;11.360;2023-02-26T07:08:44;5.10;99.90
9816;DHT22;4947;44.526;11.360;2023-02-26T07:11:13;5.10;99.90
9816;DHT22;4947;44.526;11.360;2023-02-26T07:13:41;5.10;99.90
9816;DHT22;4947;44.526;11.360;2023-02-26T07:16:08;5.10;99.90
9816;DHT22;4947;44.526;11.360;2023-02-26T07:18:36;5.10;99.90
9816;DHT22;4947;44.526;11.360;2023-02-26T07:21:04;5.10;99.90
9816;DHT22;4947;44.526;11.360;2023-02-26T07:23:35;5.10;99.90
9816;DHT22;4947;44.526;11.360;2023-02-26T07:26:03;5.10;99.90
9816;DHT22;4947;44.526;11.360;2023-02-26T07:28:33;5.10;99.90
9816;DHT22;4947;44.526;11.360;2023-02-26T07:31:01;5.10;99.90
9816;DHT22;4947;44.526;11.360;2023-02-26T07:33:28;5.20;99.90
9816;DHT22;4947;44.526;11.360;2023-02-26T07:35:56;5.20;99.90
9816;DHT22;4947;44.526;11.360;2023-02-26T07:38:24;5.20;99.90
9816;DHT22;4947;44.526;11.360;2023-02-26T07:40:53;5.20;99.90
9816;DHT22;4947;44.526;11.360;2023-02-26T07:43:21;5.20;99.90
9816;DHT22;4947;44.526;11.360;2023-02-26T07:45:51;5.20;99.90
9816;DHT22;4947;44.526;11.360;2023-02-26T07:48:19;5.20;99.90
9816;DHT22;4947;44.526;11.360;2023-02-26T07:50:46;5.20;99.90
9816;DHT22;4947;44.526;11.360;2023-02-26T07:53:17;5.20;99.90
9816;DHT22;4947;44.526;11.360;2023-02-26T07:55:45;5.20;99.90
9816;DHT22;4947;44.526;11.360;2023-02-26T07:58:13;5.20;99.90
9816;DHT22;4947;44.526;11.360;2023-02-26T08:00:40;5.30;99.90
9816;DHT22;4947;44.526;11.360;2023-02-26T08:03:09;5.30;99.90
9816;DHT22;4947;44.526;11.360;2023-02-26T08:05:36;5.30;99.90
9816;DHT22;4947;44.526;11.360;2023-02-26T08:08:04;5.30;99.90
9816;DHT22;4947;44.526;11.360;2023-02-26T08:10:32;5.30;99.90
9816;DHT22;4947;44.526;11.360;2023-02-26T08:13:00;5.30;99.90
9816;DHT22;4947;44.526;11.360;2023-02-26T08:15:27;5.30;99.90
9816;DHT22;4947;44.526;11.360;2023-02-26T08:17:55;5.40;99.90
9816;DHT22;4947;44.526;11.360;2023-02-26T08:20:24;5.40;99.90
9816;DHT22;4947;44.526;11.360;2023-02-26T08:22:51;5.40;99.90
9816;DHT22;4947;44.526;11.360;2023-02-26T08:25:19;5.40;99.90
9816;DHT22;4947;44.526;11.360;2023-02-26T08:27:46;5.40;99.90
9816;DHT22;4947;44.526;11.360;2023-02-26T08:30:14;5.50;99.90
9816;DHT22;4947;44.526;11.360;2023-02-26T08:32:41;5.50;99.90
9816;DHT22;4947;44.526;11.360;2023-02-26T08:35:10;5.50;99.90
9816;DHT22;4947;44.526;11.360;2023-02-26T08:37:39;5.30;99.90
9816;DHT22;4947;44.526;11.360;2023-02-26T08:40:08;5.20;99.90
9816;DHT22;4947;44.526;11.360;2023-02-26T08:42:36;5.10;99.90
9816;DHT22;4947;44.526;11.360;2023-02-26T08:45:05;5.10;99.90
9816;DHT22;4947;44.526;11.360;2023-02-26T08:47:32;5.00;99.90
9816;DHT22;4947;44.526;11.360;2023-02-26T08:50:00;4.90;99.90
9816;DHT22;4947;44.526;11.360;2023-02-26T08:52:27;4.90;99.90
9816;DHT22;4947;44.526;11.360;2023-02-26T08:54:57;4.90;99.90
9816;DHT22;4947;44.526;11.360;2023-02-26T08:57:25;4.90;99.90
9816;DHT22;4947;44.526;11.360;2023-02-26T08:59:53;4.80;99.90
9816;DHT22;4947;44.526;11.360;2023-02-26T09:02:21;4.80;99.90
9816;DHT22;4947;44.526;11.360;2023-02-26T09:04:49;4.80;99.90
9816;DHT22;4947;44.526;11.360;2023-02-26T09:07:16;4.80;99.90
9816;DHT22;4947;44.526;11.360;2023-02-26T09:09:44;4.80;99.90
9816;DHT22;4947;44.526;11.360;2023-02-26T09:12:14;4.70;99.90
9816;DHT22;4947;44.526;11.360;2023-02-26T09:14:41;4.70;99.90
9816;DHT22;4947;44.526;11.360;2023-02-26T09:17:09;4.70;99.90
9816;DHT22;4947;44.526;11.360;2023-02-26T09:19:37;4.70;99.90
9816;DHT22;4947;44.526;11.360;2023-02-26T09:22:05;4.70;99.90
9816;DHT22;4947;44.526;11.360;2023-02-26T09:24:33;4.70;99.90
9816;DHT22;4947;44.526;11.360;2023-02-26T09:27:02;4.70;99.90
9816;DHT22;4947;44.526;11.360;2023-02-26T09:29:31;4.70;99.90
9816;DHT22;4947;44.526;11.360;2023-02-26T09:31:58;4.70;99.90
9816;DHT22;4947;44.526;11.360;2023-02-26T09:34:29;4.70;99.90
9816;DHT22;4947;44.526;11.360;2023-02-26T09:36:57;4.70;99.90
9816;DHT22;4947;44.526;11.360;2023-02-26T09:39:24;4.70;99.90
9816;DHT22;4947;44.526;11.360;2023-02-26T09:41:54;4.70;99.90
9816;DHT22;4947;44.526;11.360;2023-02-26T09:44:25;4.70;99.90
9816;DHT22;4947;44.526;11.360;2023-02-26T09:47:01;4.70;99.90
9816;DHT22;4947;44.526;11.360;2023-02-26T09:49:49;4.70;99.90
9816;DHT22;4947;44.526;11.360;2023-02-26T09:52:23;4.70;99.90
9816;DHT22;4947;44.526;11.360;2023-02-26T09:54:53;4.70;99.90
9816;DHT22;4947;44.526;11.360;2023-02-26T09:57:29;4.70;99.90
9816;DHT22;4947;44.526;11.360;2023-02-26T09:59:57;4.80;99.90
9816;DHT22;4947;44.526;11.360;2023-02-26T10:02:35;4.80;99.90
9816;DHT22;4947;44.526;11.360;2023-02-26T10:05:14;4.80;99.90
9816;DHT22;4947;44.526;11.360;2023-02-26T10:07:49;4.80;99.90
9816;DHT22;4947;44.526;11.360;2023-02-26T10:10:24;4.80;99.90
9816;DHT22;4947;44.526;11.360;2023-02-26T10:12:56;4.80;99.90
9816;DHT22;4947;44.526;11.360;2023-02-26T10:15:31;4.80;99.90
9816;DHT22;4947;44.526;11.360;2023-02-26T10:18:08;4.80;99.90
9816;DHT22;4947;44.526;11.360;2023-02-26T10:20:41;4.80;99.90
9816;DHT22;4947;44.526;11.360;2023-02-26T10:23:17;4.80;99.90
9816;DHT22;4947;44.526;11.360;2023-02-26T10:25:49;4.70;99.90
9816;DHT22;4947;44.526;11.360;2023-02-26T10:28:42;4.70;99.90
9816;DHT22;4947;44.526;11.360;2023-02-26T10:31:20;4.80;99.90
9816;DHT22;4947;44.526;11.360;2023-02-26T10:33:57;4.80;99.90
9816;DHT22;4947;44.526;11.360;2023-02-26T10:36:28;4.80;99.90
9816;DHT22;4947;44.526;11.360;2023-02-26T10:39:01;4.80;99.90
9816;DHT22;4947;44.526;11.360;2023-02-26T10:41:33;4.80;99.90
9816;DHT22;4947;44.526;11.360;2023-02-26T10:44:08;4.90;99.90
9816;DHT22;4947;44.526;11.360;2023-02-26T10:46:47;4.80;99.90
9816;DHT22;4947;44.526;11.360;2023-02-26T10:49:59;4.90;99.90
9816;DHT22;4947;44.526;11.360;2023-02-26T10:52:32;4.90;99.90
9816;DHT22;4947;44.526;11.360;2023-02-26T10:55:12;4.90;99.90
9816;DHT22;4947;44.526;11.360;2023-02-26T10:58:02;4.90;99.90
9816;DHT22;4947;44.526;11.360;2023-02-26T11:00:31;4.90;99.90
9816;DHT22;4947;44.526;11.360;2023-02-26T11:03:02;4.90;99.90
9816;DHT22;4947;44.526;11.360;2023-02-26T11:05:34;4.90;99.90
9816;DHT22;4947;44.526;11.360;2023-02-26T11:08:04;4.90;99.90
9816;DHT22;4947;44.526;11.360;2023-02-26T11:10:41;5.00;99.90
9816;DHT22;4947;44.526;11.360;2023-02-26T11:13:09;4.90;99.90
9816;DHT22;4947;44.526;11.360;2023-02-26T11:15:38;4.90;99.90
9816;DHT22;4947;44.526;11.360;2023-02-26T11:18:11;4.90;99.90
9816;DHT22;4947;44.526;11.360;2023-02-26T11:20:45;4.90;99.90
9816;DHT22;4947;44.526;11.360;2023-02-26T11:23:16;4.80;99.90
9816;DHT22;4947;44.526;11.360;2023-02-26T11:25:44;4.80;99.90
9816;DHT22;4947;44.526;11.360;2023-02-26T11:28:23;4.80;99.90
9816;DHT22;4947;44.526;11.360;2023-02-26T11:30:52;4.70;99.90
9816;DHT22;4947;44.526;11.360;2023-02-26T11:33:23;4.70;99.90
9816;DHT22;4947;44.526;11.360;2023-02-26T11:36:02;4.70;99.90
9816;DHT22;4947;44.526;11.360;2023-02-26T11:38:32;4.70;99.90
9816;DHT22;4947;44.526;11.360;2023-02-26T11:41:01;4.70;99.90
9816;DHT22;4947;44.526;11.360;2023-02-26T11:43:35;4.60;99.90
9816;DHT22;4947;44.526;11.360;2023-02-26T11:46:04;4.60;99.90
9816;DHT22;4947;44.526;11.360;2023-02-26T11:48:39;4.50;99.90
9816;DHT22;4947;44.526;11.360;2023-02-26T11:51:14;4.50;99.90
9816;DHT22;4947;44.526;11.360;2023-02-26T11:53:48;4.50;99.90
9816;DHT22;4947;44.526;11.360;2023-02-26T11:56:23;4.50;99.90
9816;DHT22;4947;44.526;11.360;2023-02-26T11:58:52;4.50;99.90
9816;DHT22;4947;44.526;11.360;2023-02-26T12:01:20;4.40;99.90
9816;DHT22;4947;44.526;11.360;2023-02-26T12:03:51;4.30;99.90
9816;DHT22;4947;44.526;11.360;2023-02-26T12:06:22;4.30;99.90
9816;DHT22;4947;44.526;11.360;2023-02-26T12:08:51;4.30;99.90
9816;DHT22;4947;44.526;11.360;2023-02-26T12:15:04;4.30;99.90
9816;DHT22;4947;44.526;11.360;2023-02-26T12:17:41;4.30;99.90
9816;DHT22;4947;44.526;11.360;2023-02-26T12:20:20;4.30;99.90
9816;DHT22;4947;44.526;11.360;2023-02-26T12:23:09;4.20;99.90
9816;DHT22;4947;44.526;11.360;2023-02-26T12:26:06;4.20;99.90
9816;DHT22;4947;44.526;11.360;2023-02-26T12:28:51;4.30;99.90
9816;DHT22;4947;44.526;11.360;2023-02-26T12:31:30;4.20;99.90
9816;DHT22;4947;44.526;11.360;2023-02-26T12:34:20;4.10;99.90
9816;DHT22;4947;44.526;11.360;2023-02-26T12:37:12;4.20;99.90
9816;DHT22;4947;44.526;11.360;2023-02-26T12:39:50;4.20;99.90
9816;DHT22;4947;44.526;11.360;2023-02-26T12:42:34;4.20;99.90
9816;DHT22;4947;44.526;11.360;2023-02-26T12:45:20;4.20;99.90
9816;DHT22;4947;44.526;11.360;2023-02-26T12:48:01;4.30;99.90
9816;DHT22;4947;44.526;11.360;2023-02-26T12:50:41;4.20;99.90
9816;DHT22;4947;44.526;11.360;2023-02-26T12:53:26;4.30;99.90
9816;DHT22;4947;44.526;11.360;2023-02-26T12:59:11;4.30;99.90
9816;DHT22;4947;44.526;11.360;2023-02-26T13:02:11;4.30;99.90
9816;DHT22;4947;44.526;11.360;2023-02-26T13:05:00;4.30;99.90
9816;DHT22;4947;44.526;11.360;2023-02-26T13:07:44;4.20;99.90
9816;DHT22;4947;44.526;11.360;2023-02-26T13:10:23;4.20;99.90
9816;DHT22;4947;44.526;11.360;2023-02-26T13:13:04;4.20;99.90
9816;DHT22;4947;44.526;11.360;2023-02-26T13:15:46;4.30;99.90
9816;DHT22;4947;44.526;11.360;2023-02-26T13:18:22;4.20;99.90
9816;DHT22;4947;44.526;11.360;2023-02-26T13:20:54;4.20;99.90
9816;DHT22;4947;44.526;11.360;2023-02-26T13:23:29;4.20;99.90
9816;DHT22;4947;44.526;11.360;2023-02-26T13:26:00;4.30;99.90
9816;DHT22;4947;44.526;11.360;2023-02-26T13:28:37;4.30;99.90
9816;DHT22;4947;44.526;11.360;2023-02-26T13:31:10;4.30;99.90
9816;DHT22;4947;44.526;11.360;2023-02-26T13:33:39;4.30;99.90
9816;DHT22;4947;44.526;11.360;2023-02-26T13:36:07;4.30;99.90
9816;DHT22;4947;44.526;11.360;2023-02-26T13:38:46;4.20;99.90
9816;DHT22;4947;44.526;11.360;2023-02-26T13:41:24;4.20;99.90
9816;DHT22;4947;44.526;11.360;2023-02-26T13:44:08;4.10;99.90
9816;DHT22;4947;44.526;11.360;2023-02-26T13:46:51;4.10;99.90
9816;DHT22;4947;44.526;11.360;2023-02-26T13:49:30;4.10;99.90
9816;DHT22;4947;44.526;11.360;2023-02-26T13:52:00;4.00;99.90
9816;DHT22;4947;44.526;11.360;2023-02-26T13:54:41;4.00;99.90
9816;DHT22;4947;44.526;11.360;2023-02-26T14:00:24;4.00;99.90
9816;DHT22;4947;44.526;11.360;2023-02-26T14:02:54;4.00;99.90
9816;DHT22;4947;44.526;11.360;2023-02-26T14:05:53;4.00;99.90
9816;DHT22;4947;44.526;11.360;2023-02-26T14:08:43;4.00;99.90
9816;DHT22;4947;44.526;11.360;2023-02-26T14:11:37;4.00;99.90
9816;DHT22;4947;44.526;11.360;2023-02-26T14:14:10;4.00;99.90
9816;DHT22;4947;44.526;11.360;2023-02-26T14:16:42;4.00;99.90
9816;DHT22;4947;44.526;11.360;2023-02-26T14:19:25;3.90;99.90
9816;DHT22;4947;44.526;11.360;2023-02-26T14:21:54;3.90;99.90
9816;DHT22;4947;44.526;11.360;2023-02-26T14:24:29;3.80;99.90
9816;DHT22;4947;44.526;11.360;2023-02-26T14:27:32;3.80;99.90
9816;DHT22;4947;44.526;11.360;2023-02-26T14:30:16;3.80;99.90
9816;DHT22;4947;44.526;11.360;2023-02-26T14:32:48;3.70;99.90
9816;DHT22;4947;44.526;11.360;2023-02-26T14:35:21;3.70;99.90
9816;DHT22;4947;44.526;11.360;2023-02-26T14:37:56;3.70;99.90
9816;DHT22;4947;44.526;11.360;2023-02-26T14:40:25;3.70;99.90
9816;DHT22;4947;44.526;11.360;2023-02-26T14:42:58;3.70;99.90
9816;DHT22;4947;44.526;11.360;2023-02-26T14:45:29;3.70;99.90
9816;DHT22;4947;44.526;11.360;2023-02-26T14:48:00;3.60;99.90
9816;DHT22;4947;44.526;11.360;2023-02-26T14:50:36;3.60;99.90
9816;DHT22;4947;44.526;11.360;2023-02-26T14:53:43;3.60;99.90
9816;DHT22;4947;44.526;11.360;2023-02-26T14:56:19;3.50;99.90
9816;DHT22;4947;44.526;11.360;2023-02-26T14:59:02;3.50;99.90
9816;DHT22;4947;44.526;11.360;2023-02-26T15:01:44;3.50;99.90
9816;DHT22;4947;44.526;11.360;2023-02-26T15:07:38;3.40;99.90
9816;DHT22;4947;44.526;11.360;2023-02-26T15:10:22;3.40;99.90
9816;DHT22;4947;44.526;11.360;2023-02-26T15:13:09;3.30;99.90
9816;DHT22;4947;44.526;11.360;2023-02-26T15:15:47;3.30;99.90
9816;DHT22;4947;44.526;11.360;2023-02-26T15:18:48;3.30;99.90
9816;DHT22;4947;44.526;11.360;2023-02-26T15:21:25;3.30;99.90
9816;DHT22;4947;44.526;11.360;2023-02-26T15:23:56;3.30;99.90
9816;DHT22;4947;44.526;11.360;2023-02-26T15:26:27;3.30;99.90
9816;DHT22;4947;44.526;11.360;2023-02-26T15:28:56;3.40;99.90
9816;DHT22;4947;44.526;11.360;2023-02-26T15:31:30;3.40;99.90
9816;DHT22;4947;44.526;11.360;2023-02-26T15:34:00;3.30;99.90
9816;DHT22;4947;44.526;11.360;2023-02-26T15:36:30;3.20;99.90
9816;DHT22;4947;44.526;11.360;2023-02-26T15:39:00;3.20;99.90
9816;DHT22;4947;44.526;11.360;2023-02-26T15:41:29;3.20;99.90
9816;DHT22;4947;44.526;11.360;2023-02-26T15:44:01;3.20;99.90
9816;DHT22;4947;44.526;11.360;2023-02-26T15:46:32;3.20;99.90
9816;DHT22;4947;44.526;11.360;2023-02-26T15:49:04;3.20;99.90
9816;DHT22;4947;44.526;11.360;2023-02-26T15:51:35;3.20;99.90
9816;DHT22;4947;44.526;11.360;2023-02-26T15:54:03;3.20;99.90
9816;DHT22;4947;44.526;11.360;2023-02-26T15:56:35;3.20;99.90
9816;DHT22;4947;44.526;11.360;2023-02-26T15:59:09;3.20;99.90
9816;DHT22;4947;44.526;11.360;2023-02-26T16:01:39;3.20;99.90
9816;DHT22;4947;44.526;11.360;2023-02-26T16:04:12;3.20;99.90
9816;DHT22;4947;44.526;11.360;2023-02-26T16:06:43;3.20;99.90
9816;DHT22;4947;44.526;11.360;2023-02-26T16:09:17;3.20;99.90
9816;DHT22;4947;44.526;11.360;2023-02-26T16:11:46;3.20;99.90
9816;DHT22;4947;44.526;11.360;2023-02-26T16:14:17;3.10;99.90
9816;DHT22;4947;44.526;11.360;2023-02-26T16:16:49;3.10;99.90
9816;DHT22;4947;44.526;11.360;2023-02-26T16:19:27;3.10;99.90
9816;DHT22;4947;44.526;11.360;2023-02-26T16:22:11;3.10;99.90
9816;DHT22;4947;44.526;11.360;2023-02-26T16:24:39;3.10;99.90
9816;DHT22;4947;44.526;11.360;2023-02-26T16:27:11;3.10;99.90
9816;DHT22;4947;44.526;11.360;2023-02-26T16:29:47;3.10;99.90
9816;DHT22;4947;44.526;11.360;2023-02-26T16:32:17;3.10;99.90
9816;DHT22;4947;44.526;11.360;2023-02-26T16:34:50;3.10;99.90
9816;DHT22;4947;44.526;11.360;2023-02-26T16:37:25;3.10;99.90
9816;DHT22;4947;44.526;11.360;2023-02-26T16:39:56;3.20;99.90
9816;DHT22;4947;44.526;11.360;2023-02-26T16:42:35;3.10;99.90
9816;DHT22;4947;44.526;11.360;2023-02-26T16:45:16;3.10;99.90
9816;DHT22;4947;44.526;11.360;2023-02-26T16:47:48;3.10;99.90
9816;DHT22;4947;44.526;11.360;2023-02-26T16:50:19;3.10;99.90
9816;DHT22;4947;44.526;11.360;2023-02-26T16:52:59;3.10;99.90